Flight Track Log - Related Links

Times and Time Zones

All times are in EDT time to prevent confusion due to time zone crossing. See the KAL823 flight status page for this flight to view local times or setup timezone preferences in your user account.

Time Position Orientation Groundspeed Altitude Reporting Facility
EDT Latitude Longitude Course Direction KTS MPH feet Rate Location/Type
Wed 09:21:00 PM 37.5208 126.4710 17° North  Level Estimated
Wed 09:22:00 PM 37.5726 126.4915 17° North  Level Estimated
Wed 09:23:00 PM 37.6243 126.5121 17° North  Level Estimated
Wed 09:24:00 PM 37.6760 126.5327 17° North  Level Estimated
Wed 09:25:00 PM 37.7278 126.5533 17° North  Level Estimated
Wed 09:26:00 PM 37.7795 126.5739 18° North  Level Estimated
Wed 09:27:00 PM 37.8312 126.5946 18° North  Level Estimated
Wed 09:28:00 PM 37.8830 126.6153 18° North  Level Estimated
Wed 09:29:00 PM 37.9366 126.6368 18° North  Level Estimated
Wed 09:30:00 PM 37.9903 126.6583 18° North  Level Estimated
Wed 09:31:00 PM 38.0440 126.6799 18° North  Level Estimated
Wed 09:32:00 PM 38.0976 126.7015 18° North  Level Estimated
Wed 09:33:00 PM 38.1513 126.7232 18° North  Level Estimated
Wed 09:34:00 PM 38.2050 126.7448 18° North  Level Estimated
Wed 09:35:00 PM 38.2586 126.7665 18° North  Level Estimated
Wed 09:36:00 PM 38.3123 126.7883 18° North  Level Estimated
Wed 09:37:00 PM 38.3659 126.8101 18° North  Level Estimated
Wed 09:38:00 PM 38.4196 126.8318 18° North  Level Estimated
Wed 09:39:00 PM 38.4732 126.8537 18° North  Level Estimated
Wed 09:40:00 PM 38.5268 126.8755 18° North  Level Estimated
Wed 09:41:00 PM 38.5805 126.8974 18° North  Level Estimated
Wed 09:42:00 PM 38.6341 126.9194 18° North  Level Estimated
Wed 09:43:00 PM 38.6877 126.9413 18° North  Level Estimated
Wed 09:44:00 PM 38.7413 126.9633 18° North  Level Estimated
Wed 09:45:00 PM 38.7949 126.9854 18° North  Level Estimated
Wed 09:46:00 PM 38.8485 127.0074 18° North  Level Estimated
Wed 09:47:00 PM 38.9021 127.0295 18° North  Level Estimated
Wed 09:48:00 PM 38.9557 127.0516 18° North  Level Estimated
Wed 09:49:00 PM 39.0093 127.0738 18° North  Level Estimated
Wed 09:50:00 PM 39.0629 127.0960 18° North  Level Estimated
Wed 09:51:00 PM 39.1165 127.1182 18° North  Level Estimated
Wed 09:52:00 PM 39.1701 127.1405 18° North  Level Estimated
Wed 09:53:00 PM 39.2237 127.1628 18° North  Level Estimated
Wed 09:54:00 PM 39.2773 127.1851 18° North  Level Estimated
Wed 09:55:00 PM 39.3308 127.2075 18° North  Level Estimated
Wed 09:56:00 PM 39.3844 127.2299 18° North  Level Estimated
Wed 09:57:00 PM 39.4380 127.2523 18° North  Level Estimated
Wed 09:58:00 PM 39.4915 127.2748 18° North  Level Estimated
Wed 09:59:00 PM 39.5451 127.2973 18° North  Level Estimated
Wed 10:00:00 PM 39.5986 127.3198 18° North  Level Estimated
Wed 10:01:00 PM 39.6522 127.3424 18° North  Level Estimated
Wed 10:02:00 PM 39.7057 127.3650 18° North  Level Estimated
Wed 10:03:00 PM 39.7593 127.3876 18° North  Level Estimated
Wed 10:04:00 PM 39.8128 127.4103 18° North  Level Estimated
Wed 10:05:00 PM 39.8663 127.4330 18° North  Level Estimated
Wed 10:06:00 PM 39.9198 127.4558 18° North  Level Estimated
Wed 10:07:00 PM 39.9734 127.4786 18° North  Level Estimated
Wed 10:08:00 PM 40.0269 127.5014 18° North  Level Estimated
Wed 10:09:00 PM 40.0804 127.5242 18° North  Level Estimated
Wed 10:10:00 PM 40.1339 127.5471 18° North  Level Estimated
Wed 10:11:00 PM 40.1874 127.5701 18° North  Level Estimated
Wed 10:12:00 PM 40.2409 127.5930 18° North  Level Estimated
Wed 10:13:00 PM 40.2944 127.6160 18° North  Level Estimated
Wed 10:14:00 PM 40.3479 127.6391 18° North  Level Estimated
Wed 10:15:00 PM 40.4013 127.6621 18° North  Level Estimated
Wed 10:16:00 PM 40.4548 127.6852 18° North  Level Estimated
Wed 10:17:00 PM 40.5083 127.7084 18° North  Level Estimated
Wed 10:18:00 PM 40.5618 127.7316 18° North  Level Estimated
Wed 10:19:00 PM 40.6152 127.7548 18° North  Level Estimated
Wed 10:20:00 PM 40.6687 127.7781 18° North  Level Estimated
Wed 10:21:00 PM 40.7221 127.8014 18° North  Level Estimated
Wed 10:22:00 PM 40.7756 127.8247 18° North  Level Estimated
Wed 10:23:00 PM 40.8290 127.8481 18° North  Level Estimated
Wed 10:24:00 PM 40.8825 127.8715 18° North  Level Estimated
Wed 10:25:00 PM 40.9359 127.8949 18° North  Level Estimated
Wed 10:26:00 PM 40.9893 127.9184 18° North  Level Estimated
Wed 10:27:00 PM 41.0428 127.9419 18° North  Level Estimated
Wed 10:28:00 PM 41.0962 127.9655 18° North  Level Estimated
Wed 10:29:00 PM 41.1496 127.9891 18° North  Level Estimated
Wed 10:30:00 PM 41.2030 128.0127 18° North  Level Estimated
Wed 10:31:00 PM 41.2564 128.0364 18° North  Level Estimated
Wed 10:32:00 PM 41.3098 128.0601 18° North  Level Estimated
Wed 10:33:00 PM 41.3632 128.0838 18° North  Level Estimated
Wed 10:34:00 PM 41.4166 128.1077 18° North  Level Estimated
Wed 10:35:00 PM 41.4700 128.1315 18° North  Level Estimated
Wed 10:36:00 PM 41.5234 128.1553 19° North  Level Estimated
Wed 10:37:00 PM 41.5768 128.1793 19° North  Level Estimated
Wed 10:38:00 PM 41.6301 128.2032 19° North  Level Estimated
Wed 10:39:00 PM 41.6835 128.2272 19° North  Level Estimated
Wed 10:40:00 PM 41.7369 128.2512 19° North  Level Estimated
Wed 10:41:00 PM 41.7902 128.2753 19° North  Level Estimated
Wed 10:42:00 PM 41.8436 128.2994 19° North  Level Estimated
Wed 10:43:00 PM 41.8969 128.3235 19° North  Level Estimated
Wed 10:44:00 PM 41.9503 128.3477 19° North  Level Estimated
Wed 10:45:00 PM 42.0036 128.3720 19° North  Level Estimated
Wed 10:46:00 PM 42.0569 128.3963 19° North  Level Estimated
Wed 10:47:00 PM 42.1103 128.4206 19° North  Level Estimated
Wed 10:48:00 PM 42.1636 128.4449 19° North  Level Estimated
Wed 10:49:00 PM 42.2169 128.4693 19° North  Level Estimated
Wed 10:50:00 PM 42.2702 128.4937 19° North  Level Estimated
Wed 10:51:00 PM 42.3235 128.5182 19° North  Level Estimated
Wed 10:52:00 PM 42.3768 128.5427 19° North  Level Estimated
Wed 10:53:00 PM 42.4301 128.5673 19° North  Level Estimated
Wed 10:54:00 PM 42.4834 128.5919 19° North  Level Estimated
Wed 10:55:00 PM 42.5367 128.6165 19° North  Level Estimated
Wed 10:56:00 PM 42.5900 128.6412 19° North  Level Estimated
Wed 10:57:00 PM 42.6433 128.6660 19° North  Level Estimated
Wed 10:58:00 PM 42.6965 128.6907 19° North  Level Estimated
Wed 10:59:00 PM 42.7498 128.7155 19° North  Level Estimated
Wed 11:00:00 PM 42.8031 128.7404 19° North  Level Estimated
Wed 11:01:00 PM 42.8563 128.7653 19° North  Level Estimated
Wed 11:02:00 PM 42.9096 128.7902 19° North  Level Estimated
Wed 11:03:00 PM 42.9628 128.8152 19° North  Level Estimated
Wed 11:04:00 PM 43.0160 128.8402 19° North  Level Estimated
Wed 11:05:00 PM 43.0693 128.8653 19° North  Level Estimated
Wed 11:06:00 PM 43.1225 128.8904 19° North  Level Estimated
Wed 11:07:00 PM 43.1757 128.9156 19° North  Level Estimated
Wed 11:08:00 PM 43.2289 128.9408 19° North  Level Estimated
Wed 11:09:00 PM 43.2822 128.9660 19° North  Level Estimated
Wed 11:10:00 PM 43.3354 128.9913 19° North  Level Estimated
Wed 11:11:00 PM 43.3886 129.0167 19° North  Level Estimated
Wed 11:12:00 PM 43.4417 129.0420 19° North  Level Estimated
Wed 11:13:00 PM 43.4949 129.0675 19° North  Level Estimated
Wed 11:14:00 PM 43.5481 129.0929 19° North  Level Estimated
Wed 11:15:00 PM 43.6013 129.1184 19° North  Level Estimated
Wed 11:16:00 PM 43.6545 129.1440 19° North  Level Estimated
Wed 11:17:00 PM 43.7076 129.1696 19° North  Level Estimated
Wed 11:18:00 PM 43.7608 129.1953 19° North  Level Estimated
Wed 11:19:00 PM 43.8139 129.2209 19° North  Level Estimated
Wed 11:20:00 PM 43.8671 129.2467 19° North  Level Estimated
Wed 11:21:00 PM 43.9202 129.2725 19° North  Level Estimated
Wed 11:22:00 PM 43.9734 129.2983 19° North  Level Estimated
Wed 11:23:00 PM 44.0265 129.3242 19° North  Level Estimated
Wed 11:24:00 PM 44.0796 129.3501 19° North  Level Estimated
Wed 11:25:00 PM 44.1327 129.3761 19° North  Level Estimated
Wed 11:26:00 PM 44.1859 129.4021 19° North  Level Estimated
Wed 11:27:00 PM 44.2390 129.4282 19° North  Level Estimated
Wed 11:28:00 PM 44.2921 129.4543 19° North  Level Estimated
Wed 11:29:00 PM 44.3452 129.4805 19° North  Level Estimated
Wed 11:30:00 PM 44.3983 129.5067 19° North  Level Estimated
Wed 11:31:00 PM 44.4513 129.5329 19° North  Level Estimated
Wed 11:32:00 PM 44.5044 129.5592 19° North  Level Estimated
Wed 11:33:00 PM 44.5241 129.5690 19° North  Level Estimated
Wed 11:34:00 PM 44.5241 129.5690 North  Level Estimated
Wed 11:35:00 PM 44.5241 129.5690 North  Level Estimated
Wed 11:36:00 PM 44.5241 129.5690 North  Level Estimated
Wed 11:37:00 PM 44.5241 129.5690 North  Level Estimated
Wed 11:38:00 PM 44.5241 129.5690 North  Level Estimated
Wed 11:39:00 PM 44.5241 129.5690 North  Level Estimated
Wed 11:40:00 PM 44.5241 129.5690 North  Level Estimated
Wed 11:41:00 PM 44.5241 129.5690 North  Level Estimated
Wed 11:42:00 PM 44.5241 129.5690 North  Level Estimated
Wed 11:43:00 PM 44.5241 129.5690 North  Level Estimated
Wed 11:44:00 PM 44.5241 129.5690 North  Level Estimated
Wed 11:45:00 PM 44.5241 129.5690 North  Level Estimated
Wed 11:46:00 PM 44.5241 129.5690 North  Level Estimated
Wed 11:47:00 PM 44.5241 129.5690 North  Level Estimated
Wed 11:48:00 PM 44.5241 129.5690 North  Level Estimated
Wed 11:49:00 PM 44.5241 129.5690 North  Level Estimated
Wed 11:50:00 PM 44.5241 129.5690 North  Level Estimated

Login

Don't have an account? Register now (free) for customized features, flight alerts, and more!